Time;durP1;ratioP1;P1;durP2;ratioP2;P2;SDS_P1;SDS_P2;PMS_P1;PMS_P2;Temp;Humidity;BMP_temperature;BMP_pressure;BME280_temperature;BME280_humidity;BME280_pressure;Samples;Min_cycle;Max_cycle;Signal;HPM_P1;HPM_P2
2022/07/16 00:02:08;;;;;;;;;;;;;;;17.96;54.24;100378.94;5055100;28;20059;-88
2022/07/16 00:04:33;;;;;;;7.30;2.13;;;;;;;17.93;54.34;100373.22;5054798;28;19963;-88
2022/07/16 00:06:58;;;;;;;3.92;2.00;;;;;;;17.88;54.18;100367.78;5055003;28;20135;-88
2022/07/16 00:09:24;;;;;;;4.97;2.50;;;;;;;17.88;54.10;100370.53;5054758;28;20055;-87
2022/07/16 00:11:49;;;;;;;7.93;2.30;;;;;;;17.94;54.57;100370.16;5055205;28;20037;-87
2022/07/16 00:14:14;;;;;;;4.23;1.90;;;;;;;17.85;54.77;100367.25;5050073;28;20266;-79
2022/07/16 00:16:40;;;;;;;4.83;2.37;;;;;;;17.85;54.60;100367.25;5051019;28;20254;-76
2022/07/16 00:19:18;;;;;;;3.70;2.28;;;;;;;17.77;54.85;100367.94;5053560;28;20261;-87
2022/07/16 00:21:45;;;;;;;5.45;1.80;;;;;;;17.72;54.96;100368.81;5055086;28;20029;-87
2022/07/16 00:24:11;;;;;;;7.43;2.30;;;;;;;17.66;55.35;100369.19;5054388;28;20036;-86
2022/07/16 00:26:36;;;;;;;9.05;2.80;;;;;;;17.67;55.39;100371.69;5054166;28;20029;-85
2022/07/16 00:29:02;;;;;;;8.75;2.97;;;;;;;17.70;55.31;100370.25;5054336;28;20040;-85
2022/07/16 00:31:27;;;;;;;4.70;1.92;;;;;;;17.67;55.29;100377.19;5054325;28;20044;-85
2022/07/16 00:33:52;;;;;;;5.57;2.45;;;;;;;17.68;55.19;100367.78;5053313;28;20036;-79
2022/07/16 00:36:18;;;;;;;8.47;2.27;;;;;;;17.83;54.68;100369.50;5052090;28;20520;-79
2022/07/16 00:38:43;;;;;;;6.18;2.45;;;;;;;17.83;54.51;100372.25;5050928;28;20281;-76
2022/07/16 00:41:16;;;;;;;5.70;2.42;;;;;;;17.85;54.85;100367.25;5050095;28;20029;-76
2022/07/16 00:43:46;;;;;;;4.22;2.20;;;;;;;17.84;55.06;100367.53;5051946;28;20361;-85
2022/07/16 00:46:11;;;;;;;6.20;2.78;;;;;;;17.83;54.93;100364.00;5054486;28;20032;-85
2022/07/16 00:48:36;;;;;;;8.57;4.90;;;;;;;18.01;54.94;100369.78;5053970;28;20040;-86
2022/07/16 00:51:02;;;;;;;9.83;3.33;;;;;;;17.99;54.60;100363.75;5053687;28;20321;-85
2022/07/16 00:53:27;;;;;;;5.05;2.00;;;;;;;18.04;54.65;100371.13;5054016;28;20749;-85
2022/07/16 00:55:52;;;;;;;10.18;2.47;;;;;;;18.05;54.56;100359.78;5053864;28;20083;-85
2022/07/16 00:58:18;;;;;;;7.05;2.03;;;;;;;18.11;54.28;100356.91;5052137;28;20075;-76
2022/07/16 01:00:43;;;;;;;8.93;3.33;;;;;;;18.09;54.59;100360.81;5049541;28;20036;-76
2022/07/16 01:03:08;;;;;;;9.50;2.83;;;;;;;18.05;54.59;100358.94;5050142;28;20254;-74
2022/07/16 01:05:34;;;;;;;21.77;3.33;;;;;;;18.08;55.13;100359.16;5049631;28;20033;-74
2022/07/16 01:08:00;;;;;;;6.18;2.20;;;;;;;18.13;54.64;100355.50;5050769;28;20060;-85
2022/07/16 01:10:26;;;;;;;8.35;2.85;;;;;;;17.99;55.14;100355.47;5053804;28;20029;-85
2022/07/16 01:12:51;;;;;;;4.90;2.63;;;;;;;18.02;54.91;100360.38;5052129;28;20021;-75
2022/07/16 01:15:17;;;;;;;14.70;3.50;;;;;;;18.02;54.18;100354.84;5049746;28;20095;-74
2022/07/16 01:17:42;;;;;;;25.33;3.45;;;;;;;17.94;54.71;100363.84;5049116;28;20039;-85
2022/07/16 01:20:08;;;;;;;11.77;3.28;;;;;;;17.93;54.71;100364.94;5054666;28;20048;-85
2022/07/16 01:22:33;;;;;;;4.72;2.47;;;;;;;17.87;54.79;100357.84;5053678;28;20033;-83
2022/07/16 01:24:58;;;;;;;6.93;2.83;;;;;;;17.85;54.85;100356.22;5053546;28;20083;-83
2022/07/16 01:27:24;;;;;;;4.68;2.25;;;;;;;17.96;54.41;100361.56;5053293;28;20242;-76
2022/07/16 01:29:49;;;;;;;5.30;2.60;;;;;;;17.92;54.61;100363.31;5049818;28;20037;-76
2022/07/16 01:32:14;;;;;;;7.28;2.55;;;;;;;17.80;54.85;100359.06;5049764;28;20037;-76
2022/07/16 01:34:40;;;;;;;6.40;2.78;;;;;;;17.85;54.65;100360.91;5049803;28;20469;-76
2022/07/16 01:37:07;;;;;;;6.30;2.42;;;;;;;17.92;54.52;100360.56;5049709;28;20093;-76
2022/07/16 01:39:35;;;;;;;9.57;2.60;;;;;;;17.78;54.91;100358.53;5049252;28;20041;-76
2022/07/16 01:42:03;;;;;;;5.60;2.95;;;;;;;17.72;55.01;100356.97;5049656;28;20025;-76
2022/07/16 01:44:30;;;;;;;9.35;3.60;;;;;;;17.70;54.96;100349.00;5053203;28;20033;-83
2022/07/16 01:46:57;;;;;;;13.60;2.25;;;;;;;17.65;55.03;100353.78;5052466;28;20063;-84
2022/07/16 01:49:23;;;;;;;5.50;2.65;;;;;;;17.68;54.88;100356.75;5049017;28;20033;-75
2022/07/16 01:51:49;;;;;;;5.63;2.17;;;;;;;17.62;54.93;100358.78;5047749;28;20033;-77
2022/07/16 01:54:15;;;;;;;5.28;2.00;;;;;;;17.52;55.53;100360.84;5071111;28;20068;-88
2022/07/16 01:56:40;;;;;;;5.40;2.15;;;;;;;17.56;55.32;100354.44;5075127;28;20017;-87
2022/07/16 01:59:05;;;;;;;5.53;2.45;;;;;;;17.47;55.76;100359.81;5056423;28;20033;-79
2022/07/16 02:01:31;;;;;;;9.55;3.50;;;;;;;17.48;55.13;100353.19;5051261;28;20024;-79
2022/07/16 02:03:56;;;;;;;5.47;2.53;;;;;;;17.47;55.10;100356.25;5055561;28;20518;-79
2022/07/16 02:06:22;;;;;;;3.45;1.95;;;;;;;17.40;55.93;100353.84;5055157;28;20261;-79
2022/07/16 02:08:47;;;;;;;4.38;1.90;;;;;;;17.50;55.43;100352.88;5053362;28;20063;-75
2022/07/16 02:11:13;;;;;;;4.03;1.65;;;;;;;17.55;55.27;100350.06;5052494;28;20124;-74
2022/07/16 02:13:38;;;;;;;5.05;2.97;;;;;;;17.50;55.46;100350.13;5054961;28;20049;-87
2022/07/16 02:16:04;;;;;;;3.13;1.60;;;;;;;17.53;55.29;100355.06;5056807;28;20060;-87
2022/07/16 02:18:30;;;;;;;5.60;2.70;;;;;;;17.58;55.31;100349.47;5055461;28;20121;-79
2022/07/16 02:20:55;;;;;;;3.72;1.85;;;;;;;17.62;54.93;100350.50;5054853;28;20021;-79
2022/07/16 02:23:20;;;;;;;4.90;1.83;;;;;;;17.69;54.99;100341.03;5055560;28;20634;-85
2022/07/16 02:25:46;;;;;;;8.43;2.58;;;;;;;17.68;54.82;100348.50;5054737;28;20060;-76
2022/07/16 02:28:11;;;;;;;6.38;2.47;;;;;;;17.74;54.51;100338.19;5052419;28;20079;-76
2022/07/16 02:30:40;;;;;;;3.83;2.27;;;;;;;17.69;54.59;100341.03;5052663;28;20063;-76
2022/07/16 02:33:06;;;;;;;6.03;1.88;;;;;;;17.67;54.78;100337.75;5052631;28;20272;-76
2022/07/16 02:35:32;;;;;;;11.23;2.85;;;;;;;17.74;54.49;100335.44;5054596;28;20132;-87
2022/07/16 02:37:58;;;;;;;4.75;2.40;;;;;;;17.71;54.42;100333.28;5056053;28;20119;-87
2022/07/16 02:40:24;;;;;;;4.25;2.08;;;;;;;17.74;54.71;100344.53;5055714;28;20028;-79
2022/07/16 02:42:50;;;;;;;9.70;2.03;;;;;;;17.81;53.84;100340.59;5053984;28;20043;-79
2022/07/16 02:45:15;;;;;;;5.27;2.20;;;;;;;17.74;54.60;100338.19;5054942;28;20399;-86
2022/07/16 02:47:40;;;;;;;4.18;2.25;;;;;;;17.78;54.22;100339.22;5055762;28;20250;-76
2022/07/16 02:50:07;;;;;;;4.78;2.88;;;;;;;17.71;54.53;100338.81;5052294;28;20048;-77
2022/07/16 02:52:33;;;;;;;5.50;2.00;;;;;;;17.76;54.32;100333.19;5053008;28;20029;-85
2022/07/16 02:54:58;;;;;;;5.05;2.33;;;;;;;17.76;54.24;100344.22;5056004;28;20033;-85
2022/07/16 02:57:24;;;;;;;7.83;2.00;;;;;;;17.76;54.21;100341.47;5056030;28;20024;-76
2022/07/16 02:59:49;;;;;;;9.67;2.20;;;;;;;17.81;54.30;100341.41;5051696;28;20266;-77
2022/07/16 03:02:14;;;;;;;13.17;1.97;;;;;;;17.89;53.89;100344.59;5052021;28;20309;-77
2022/07/16 03:04:39;;;;;;;5.53;1.77;;;;;;;17.93;54.02;100343.69;5051955;28;20289;-76
2022/07/16 03:07:05;;;;;;;6.43;1.70;;;;;;;17.90;53.82;100349.00;5052226;28;20309;-76
2022/07/16 03:09:30;;;;;;;5.72;2.50;;;;;;;17.91;53.79;100348.69;5051297;28;20258;-76
2022/07/16 03:11:55;;;;;;;8.67;2.17;;;;;;;17.96;53.33;100345.00;5052271;28;20029;-76
2022/07/16 03:14:21;;;;;;;7.47;2.65;;;;;;;17.79;53.93;100349.16;5050052;28;20644;-75
2022/07/16 03:16:46;;;;;;;5.43;2.22;;;;;;;17.81;53.80;100344.16;5052087;28;20021;-75
2022/07/16 03:19:11;;;;;;;5.33;2.10;;;;;;;17.77;53.69;100339.53;5055106;28;20025;-84
2022/07/16 03:21:37;;;;;;;4.63;1.60;;;;;;;17.75;53.95;100339.84;5054676;28;20380;-84
2022/07/16 03:24:02;;;;;;;7.93;2.63;;;;;;;17.85;53.87;100339.69;5055807;28;20308;-87
2022/07/16 03:26:28;;;;;;;4.18;1.92;;;;;;;17.82;53.46;100340.28;5055554;28;20262;-87
2022/07/16 03:28:55;;;;;;;12.10;2.60;;;;;;;17.82;53.91;100340.28;5055343;28;20396;-86
2022/07/16 03:31:21;;;;;;;6.53;2.17;;;;;;;17.88;53.64;100340.22;5055509;28;20037;-86
2022/07/16 03:33:46;;;;;;;5.93;2.08;;;;;;;17.82;53.68;100344.97;5055698;28;20037;-83
2022/07/16 03:36:11;;;;;;;3.57;1.70;;;;;;;17.79;53.65;100340.88;5055609;28;20025;-83
2022/07/16 03:41:20;;;;;;;;;;;;;;;17.76;53.52;100329.66;5051782;28;20036;-76
2022/07/16 03:43:46;;;;;;;6.13;3.03;;;;;;;17.77;53.63;100332.09;5054023;28;19916;-85
2022/07/16 03:46:13;;;;;;;7.10;2.58;;;;;;;17.81;53.58;100338.66;5063357;28;20103;-85
2022/07/16 03:48:39;;;;;;;5.05;2.35;;;;;;;17.82;53.78;100337.50;5065454;28;20045;-78
2022/07/16 03:51:06;;;;;;;4.63;1.98;;;;;;;17.81;54.15;100338.66;5053243;28;20068;-79
2022/07/16 03:53:31;;;;;;;7.43;2.90;;;;;;;17.80;53.98;100339.75;5051749;28;20028;-78
2022/07/16 03:55:57;;;;;;;21.08;3.42;;;;;;;17.84;54.04;100342.72;5051124;28;20400;-76
2022/07/16 03:58:22;;;;;;;5.17;2.40;;;;;;;17.80;54.46;100338.94;5049992;28;20048;-74
2022/07/16 04:00:47;;;;;;;7.37;2.47;;;;;;;17.69;54.50;100343.78;5050442;28;20361;-75
2022/07/16 04:03:12;;;;;;;10.37;2.33;;;;;;;17.73;54.66;100344.84;5052321;28;20319;-85
2022/07/16 04:05:38;;;;;;;8.23;3.10;;;;;;;17.74;54.82;100339.03;5054744;28;20293;-83
2022/07/16 04:08:03;;;;;;;8.67;2.57;;;;;;;17.69;54.59;100347.38;5055241;28;20043;-87
2022/07/16 04:10:29;;;;;;;5.80;2.13;;;;;;;17.69;54.82;100346.56;5054831;28;20269;-88
2022/07/16 04:12:54;;;;;;;4.80;1.98;;;;;;;17.69;54.77;100346.56;5054174;28;20044;-79
2022/07/16 04:15:19;;;;;;;8.03;3.03;;;;;;;17.64;55.02;100349.38;5052342;28;20032;-79
2022/07/16 04:17:45;;;;;;;5.00;2.17;;;;;;;17.67;55.04;100349.63;5053983;28;20275;-86
2022/07/16 04:20:10;;;;;;;6.72;2.67;;;;;;;17.64;55.25;100358.47;5059289;28;20594;-85
2022/07/16 04:22:35;;;;;;;12.02;2.13;;;;;;;17.69;54.90;100355.66;5054041;28;20545;-76
2022/07/16 04:25:01;;;;;;;6.53;2.45;;;;;;;17.66;55.04;100361.75;5050040;28;20108;-76
2022/07/16 04:27:26;;;;;;;6.78;3.72;;;;;;;17.67;55.21;100359.81;5051002;28;20061;-86
2022/07/16 04:29:51;;;;;;;8.93;2.72;;;;;;;17.68;55.07;100366.97;5053414;28;20106;-86
2022/07/16 04:32:16;;;;;;;9.83;2.60;;;;;;;17.75;54.73;100359.16;5054152;28;20060;-85
2022/07/16 04:34:42;;;;;;;7.77;2.77;;;;;;;17.72;54.63;100356.97;5054018;28;20278;-86
2022/07/16 04:37:07;;;;;;;5.33;2.47;;;;;;;17.81;54.92;100355.19;5053961;28;20254;-84
2022/07/16 04:39:32;;;;;;;9.10;3.28;;;;;;;17.74;54.84;100354.72;5053407;28;20262;-83
2022/07/16 04:41:58;;;;;;;8.53;3.00;;;;;;;17.71;54.66;100367.19;5054012;28;20100;-84
2022/07/16 04:44:23;;;;;;;5.90;2.67;;;;;;;17.78;54.73;100366.81;5053562;28;20250;-83
2022/07/16 04:46:48;;;;;;;10.47;2.90;;;;;;;17.81;54.75;100371.75;5053187;28;20262;-84
2022/07/16 04:49:13;;;;;;;5.32;2.92;;;;;;;17.85;54.43;100370.03;5049906;28;20606;-76
2022/07/16 04:51:39;;;;;;;6.40;2.13;;;;;;;17.84;54.56;100371.13;5049868;28;20523;-77
2022/07/16 04:54:04;;;;;;;5.00;2.27;;;;;;;17.85;54.64;100369.19;5048430;28;20269;-75
2022/07/16 04:56:29;;;;;;;7.20;3.30;;;;;;;17.83;54.71;100369.50;5050132;28;20039;-74
2022/07/16 04:58:55;;;;;;;4.93;2.15;;;;;;;17.82;54.97;100367.03;5049461;28;20741;-75
2022/07/16 05:01:20;;;;;;;4.88;2.45;;;;;;;17.79;55.31;100371.22;5049651;28;20112;-75
2022/07/16 05:03:45;;;;;;;11.70;2.67;;;;;;;17.95;54.95;100365.47;5050236;28;20052;-76
2022/07/16 05:06:10;;;;;;;7.10;3.60;;;;;;;17.95;54.68;100382.00;5050105;28;20625;-76
2022/07/16 05:08:36;;;;;;;7.40;3.17;;;;;;;17.94;54.96;100385.91;5049563;28;20254;-75
2022/07/16 05:11:01;;;;;;;10.73;3.13;;;;;;;18.02;54.91;100382.44;5049308;28;20036;-75
2022/07/16 05:13:26;;;;;;;9.70;2.90;;;;;;;18.10;54.86;100380.94;5050434;28;20289;-79
2022/07/16 05:15:52;;;;;;;8.73;2.87;;;;;;;18.14;54.43;100384.75;5056612;28;20276;-79
2022/07/16 05:18:17;;;;;;;10.70;2.55;;;;;;;18.25;54.42;100381.81;5067389;28;20293;-86
2022/07/16 05:20:42;;;;;;;16.50;4.23;;;;;;;18.25;54.71;100384.59;5053605;28;20029;-86
2022/07/16 05:23:07;;;;;;;13.27;3.20;;;;;;;18.27;54.53;100385.09;5053906;28;20392;-83
2022/07/16 05:25:33;;;;;;;5.25;2.55;;;;;;;18.32;54.49;100374.00;5053514;28;20258;-83
2022/07/16 05:27:59;;;;;;;7.15;3.22;;;;;;;18.29;54.58;100385.63;5053169;28;20059;-87
2022/07/16 05:30:24;;;;;;;16.65;3.75;;;;;;;18.35;54.77;100387.16;5053385;28;20032;-87
2022/07/16 05:32:50;;;;;;;6.55;3.03;;;;;;;18.38;54.71;100386.59;5051396;28;20165;-76
2022/07/16 05:35:16;;;;;;;7.75;3.33;;;;;;;18.40;54.65;100381.59;5049846;28;20580;-77
2022/07/16 05:37:42;;;;;;;7.53;2.35;;;;;;;18.49;54.63;100384.44;5051906;28;20044;-85
2022/07/16 05:40:08;;;;;;;6.72;3.25;;;;;;;18.51;54.80;100387.72;5057293;28;20424;-86
2022/07/16 05:42:34;;;;;;;7.50;2.28;;;;;;;18.39;54.63;100390.97;5057305;28;20025;-84
2022/07/16 05:44:59;;;;;;;5.30;2.70;;;;;;;18.40;55.16;100395.38;5057041;28;20120;-84
2022/07/16 05:47:24;;;;;;;6.93;2.50;;;;;;;18.47;54.85;100394.16;5057288;28;20136;-86
2022/07/16 05:49:49;;;;;;;6.03;2.63;;;;;;;18.61;54.60;100392.22;5056625;28;20251;-86
2022/07/16 05:52:15;;;;;;;9.67;3.47;;;;;;;18.61;54.77;100391.44;5057040;28;20035;-86
2022/07/16 05:54:40;;;;;;;6.43;3.38;;;;;;;18.73;54.49;100393.69;5057133;28;20254;-86
2022/07/16 05:57:05;;;;;;;4.63;2.50;;;;;;;18.83;54.65;100395.44;5055959;28;20087;-86
2022/07/16 05:59:31;;;;;;;6.27;2.73;;;;;;;18.82;54.48;100400.16;5056119;28;20614;-85
2022/07/16 06:01:56;;;;;;;7.00;2.70;;;;;;;18.87;54.26;100400.06;5056100;28;20281;-86
2022/07/16 06:04:21;;;;;;;7.13;2.15;;;;;;;18.96;54.46;100408.44;5052505;28;20653;-76
2022/07/16 06:06:46;;;;;;;5.37;2.90;;;;;;;19.04;54.55;100408.88;5053275;28;20028;-76
2022/07/16 06:09:12;;;;;;;6.20;3.33;;;;;;;18.96;54.79;100413.97;5052770;28;20672;-76
2022/07/16 06:11:38;;;;;;;6.32;2.97;;;;;;;18.84;55.42;100413.66;5053325;28;20273;-77
2022/07/16 06:14:03;;;;;;;7.35;3.42;;;;;;;18.96;55.14;100418.66;5056254;28;20060;-83
2022/07/16 06:16:29;;;;;;;6.70;3.63;;;;;;;18.95;55.46;100417.88;5056493;28;20025;-83
2022/07/16 06:18:54;;;;;;;6.35;3.20;;;;;;;19.00;55.56;100420.53;5052330;28;20033;-76
2022/07/16 06:21:19;;;;;;;6.40;3.17;;;;;;;18.96;55.95;100425.00;5052934;28;20024;-76
2022/07/16 06:23:45;;;;;;;6.50;3.07;;;;;;;18.82;56.00;100419.47;5055809;28;20025;-84
2022/07/16 06:26:10;;;;;;;7.80;3.42;;;;;;;18.97;56.38;100428.59;5056506;28;20269;-84
2022/07/16 06:28:35;;;;;;;10.90;3.17;;;;;;;18.90;57.00;100437.28;5055557;28;20501;-86
2022/07/16 06:31:00;;;;;;;7.00;3.53;;;;;;;19.00;56.52;100433.50;5056830;28;20264;-86
2022/07/16 06:33:26;;;;;;;7.72;3.50;;;;;;;18.90;57.77;100440.88;5056871;28;20709;-86
2022/07/16 06:35:51;;;;;;;6.07;3.28;;;;;;;19.04;57.39;100444.78;5056429;28;20036;-86
2022/07/16 06:38:16;;;;;;;10.73;4.70;;;;;;;19.15;57.56;100442.66;5054050;28;20036;-75
2022/07/16 06:40:43;;;;;;;14.25;4.63;;;;;;;19.18;57.46;100442.06;5051497;28;20112;-75
2022/07/16 06:43:09;;;;;;;6.78;3.22;;;;;;;19.15;57.89;100443.47;5052265;28;20029;-86
2022/07/16 06:45:34;;;;;;;7.47;3.80;;;;;;;19.26;58.11;100449.63;5055976;28;20059;-86
2022/07/16 06:47:59;;;;;;;6.82;3.70;;;;;;;19.09;58.74;100445.50;5069501;28;20466;-75
2022/07/16 06:50:25;;;;;;;12.90;4.47;;;;;;;19.26;58.73;100449.63;5051554;28;20100;-75
2022/07/16 06:52:50;;;;;;;7.13;3.08;;;;;;;18.90;59.53;100454.69;5053812;28;20304;-87
2022/07/16 06:55:16;;;;;;;11.43;4.03;;;;;;;18.96;59.74;100457.34;5056356;28;20043;-86
2022/07/16 06:57:41;;;;;;;8.60;4.80;;;;;;;18.99;59.47;100460.34;5056501;28;20083;-84
2022/07/16 07:00:07;;;;;;;6.80;2.80;;;;;;;18.99;59.47;100456.75;5055676;28;20250;-84
2022/07/16 07:02:32;;;;;;;5.30;2.42;;;;;;;19.30;58.53;100456.16;5055440;28;20810;-76
2022/07/16 07:04:57;;;;;;;6.38;3.55;;;;;;;18.91;59.28;100466.56;5052314;28;20032;-77
2022/07/16 07:07:22;;;;;;;4.63;2.73;;;;;;;18.63;59.71;100460.97;5052995;28;20029;-84
2022/07/16 07:09:48;;;;;;;5.60;2.30;;;;;;;18.62;59.73;100470.38;5055443;28;20790;-84
2022/07/16 07:12:13;;;;;;;8.30;2.33;;;;;;;18.97;58.85;100475.56;5056056;28;20273;-84
2022/07/16 07:14:38;;;;;;;6.37;2.70;;;;;;;19.13;58.24;100476.91;5055712;28;20078;-84
2022/07/16 07:17:03;;;;;;;6.00;2.55;;;;;;;19.28;57.54;100483.31;5054737;28;20266;-79
2022/07/16 07:19:29;;;;;;;10.03;2.90;;;;;;;18.99;58.07;100489.91;5051864;28;20036;-76
2022/07/16 07:21:54;;;;;;;4.45;2.22;;;;;;;19.05;56.88;100487.84;5052614;28;20278;-76
2022/07/16 07:24:19;;;;;;;3.90;2.00;;;;;;;18.89;57.76;100479.84;5057207;28;20036;-86
2022/07/16 07:26:45;;;;;;;5.33;2.07;;;;;;;18.87;57.39;100493.16;5055834;28;20117;-86
2022/07/16 07:29:10;;;;;;;4.33;1.93;;;;;;;19.04;56.60;100489.00;5055287;28;20281;-86
2022/07/16 07:31:35;;;;;;;4.83;2.43;;;;;;;18.95;56.76;100488.88;5055828;28;20343;-86
2022/07/16 07:34:00;;;;;;;4.85;1.95;;;;;;;19.11;56.06;100484.69;5055847;28;20273;-87
2022/07/16 07:36:26;;;;;;;4.28;2.08;;;;;;;19.17;55.45;100488.22;5055001;28;20120;-86
2022/07/16 07:38:51;;;;;;;6.30;2.97;;;;;;;19.31;55.29;100498.44;5052016;28;20043;-87
2022/07/16 07:41:16;;;;;;;3.87;1.80;;;;;;;19.43;55.14;100487.69;5054888;28;20340;-87
2022/07/16 07:43:41;;;;;;;6.23;2.17;;;;;;;19.32;55.22;100486.28;5054104;28;20689;-86
2022/07/16 07:46:07;;;;;;;9.10;2.33;;;;;;;19.22;55.24;100498.34;5055640;28;20266;-87
2022/07/16 07:48:33;;;;;;;3.28;1.63;;;;;;;19.19;55.56;100499.78;5055337;28;20443;-87
2022/07/16 07:50:58;;;;;;;2.92;1.63;;;;;;;19.09;54.53;100500.75;5053436;28;20025;-87
2022/07/16 07:53:24;;;;;;;7.10;1.52;;;;;;;18.91;54.21;100499.72;5053558;28;20036;-87
2022/07/16 07:55:49;;;;;;;3.70;1.17;;;;;;;19.02;53.27;100503.91;5055889;28;20045;-88
2022/07/16 07:58:15;;;;;;;3.35;1.30;;;;;;;19.18;52.69;100506.41;5054831;28;20757;-78
2022/07/16 08:00:41;;;;;;;2.67;1.20;;;;;;;19.32;52.52;100502.88;5051440;28;20036;-76
2022/07/16 08:03:07;;;;;;;1.52;0.70;;;;;;;19.32;52.47;100505.63;5051476;28;20041;-76
2022/07/16 08:05:33;;;;;;;3.08;1.00;;;;;;;19.38;51.87;100512.69;5051088;28;20041;-77
2022/07/16 08:07:58;;;;;;;5.68;1.10;;;;;;;19.56;52.37;100510.13;5050936;28;20487;-76
2022/07/16 08:10:23;;;;;;;1.97;0.80;;;;;;;19.70;51.02;100505.41;5050729;28;20037;-77
2022/07/16 08:12:48;;;;;;;3.17;0.90;;;;;;;19.69;49.35;100506.53;5050724;28;20774;-74
2022/07/16 08:15:14;;;;;;;5.05;0.82;;;;;;;19.60;49.98;100513.91;5050183;28;20258;-75
2022/07/16 08:17:40;;;;;;;1.45;0.55;;;;;;;19.56;49.98;100504.59;5051221;28;20056;-81
2022/07/16 08:20:06;;;;;;;8.93;1.20;;;;;;;19.44;49.45;100511.47;5052589;28;20036;-79
2022/07/16 08:22:32;;;;;;;5.03;0.85;;;;;;;19.43;50.18;100509.00;5052923;28;20395;-86
2022/07/16 08:27:41;;;;;;;1.67;0.55;;;;;;;19.81;49.67;100514.28;5053573;28;20068;-75
2022/07/16 08:30:06;;;;;;;3.20;1.17;;;;;;;19.97;49.48;100505.69;5030083;28;20045;-75
2022/07/16 08:32:31;;;;;;;3.55;1.55;;;;;;;19.85;49.43;100508.97;5030257;28;20440;-75
2022/07/16 08:34:57;;;;;;;6.80;2.20;;;;;;;20.09;49.21;100513.47;5030485;28;20033;-74
2022/07/16 08:37:44;;;;;;;4.27;1.10;;;;;;;20.04;48.34;100513.53;5029796;28;20254;-75
2022/07/16 08:40:18;;;;;;;2.90;1.33;;;;;;;20.52;48.50;100505.84;5030064;28;20271;-74
2022/07/16 08:42:44;;;;;;;2.97;1.15;;;;;;;20.74;48.46;100516.09;5031070;28;20071;-84
2022/07/16 08:45:11;;;;;;;3.90;1.15;;;;;;;20.83;48.12;100518.06;5034066;28;20412;-84
2022/07/16 08:47:37;;;;;;;3.13;1.85;;;;;;;20.12;48.32;100521.13;5033666;28;20366;-77
2022/07/16 08:50:08;;;;;;;4.63;1.80;;;;;;;20.17;48.83;100532.09;5049283;28;20045;-77
2022/07/16 08:52:37;;;;;;;2.25;1.08;;;;;;;20.40;48.46;100529.34;5050394;28;20040;-77
2022/07/16 08:55:03;;;;;;;2.33;0.95;;;;;;;20.48;47.34;100524.22;5050640;28;20033;-78
2022/07/16 08:57:29;;;;;;;1.40;0.68;;;;;;;20.21;47.13;100531.47;5050372;28;20052;-78
2022/07/16 08:59:54;;;;;;;1.40;0.80;;;;;;;20.44;46.80;100539.81;5051799;28;20032;-80
2022/07/16 09:02:20;;;;;;;2.30;1.33;;;;;;;20.13;47.37;100533.03;5052380;28;20190;-89
2022/07/16 09:04:46;;;;;;;1.73;0.85;;;;;;;20.41;46.99;100536.53;5053972;28;20254;-89
2022/07/16 09:07:21;;;;;;;2.83;1.05;;;;;;;20.45;46.75;100542.25;5053985;28;20029;-77
2022/07/16 09:09:47;;;;;;;3.55;0.80;;;;;;;20.52;47.35;100536.28;5049872;28;20045;-77
2022/07/16 09:12:30;;;;;;;4.93;0.98;;;;;;;21.25;45.51;100540.03;5049962;28;20040;-79
2022/07/16 09:14:55;;;;;;;4.75;1.65;;;;;;;21.05;45.33;100542.19;5055646;28;20025;-80
2022/07/16 09:17:21;;;;;;;2.73;1.03;;;;;;;20.86;45.14;100550.69;5073464;28;20028;-78
2022/07/16 09:19:46;;;;;;;3.08;0.95;;;;;;;20.85;45.07;100555.41;5056246;28;20033;-77
2022/07/16 09:22:14;;;;;;;3.90;1.77;;;;;;;20.74;44.98;100554.03;5054225;28;20035;-77
2022/07/16 09:24:52;;;;;;;3.88;1.00;;;;;;;20.85;45.56;100560.97;5054098;28;20033;-77
2022/07/16 09:27:25;;;;;;;2.80;1.48;;;;;;;21.39;44.71;100550.19;5054353;28;20080;-87
2022/07/16 09:29:54;;;;;;;3.58;1.00;;;;;;;21.52;44.10;100565.09;5057574;28;20040;-87
2022/07/16 09:32:48;;;;;;;2.25;1.23;;;;;;;20.99;45.05;100571.19;5057089;28;20039;-80
2022/07/16 09:35:16;;;;;;;3.45;0.90;;;;;;;20.92;45.18;100570.78;5046347;28;20045;-80
2022/07/16 09:37:49;;;;;;;9.82;1.65;;;;;;;21.10;45.04;100571.75;5055658;28;20121;-87
2022/07/16 09:40:29;;;;;;;4.40;1.53;;;;;;;21.48;44.63;100576.00;5057691;28;20037;-86
2022/07/16 09:42:54;;;;;;;6.32;1.58;;;;;;;21.74;43.42;100566.16;5056802;28;20285;-85
2022/07/16 09:45:21;;;;;;;2.22;1.23;;;;;;;22.03;43.45;100571.16;5057461;28;20029;-85
2022/07/16 09:47:47;;;;;;;3.33;0.95;;;;;;;21.85;41.93;100572.25;5055164;28;20029;-77
2022/07/16 09:50:12;;;;;;;6.53;0.70;;;;;;;22.12;42.39;100573.94;5053531;28;20072;-76
2022/07/16 09:52:38;;;;;;;1.67;0.88;;;;;;;22.21;41.60;100573.94;5054708;28;20488;-86
2022/07/16 09:55:04;;;;;;;5.63;1.55;;;;;;;21.50;42.92;100572.94;5057464;28;20036;-87
2022/07/16 09:57:30;;;;;;;2.03;0.90;;;;;;;21.55;42.38;100579.16;5056709;28;20115;-77
2022/07/16 09:59:56;;;;;;;4.00;0.75;;;;;;;20.98;43.58;100587.00;5053167;28;20028;-77
2022/07/16 10:02:23;;;;;;;2.42;1.17;;;;;;;21.07;43.70;100589.00;5053284;28;20037;-77
2022/07/16 10:04:48;;;;;;;2.40;0.95;;;;;;;20.96;43.61;100583.69;5051902;28;20522;-77
2022/07/16 10:07:13;;;;;;;4.07;0.93;;;;;;;20.81;44.05;100589.63;5053623;28;20037;-85
2022/07/16 10:09:39;;;;;;;3.15;1.15;;;;;;;20.74;44.71;100598.38;5057049;28;20025;-84
2022/07/16 10:12:08;;;;;;;4.03;0.80;;;;;;;21.17;44.14;100591.53;5057543;28;20082;-82
2022/07/16 10:14:36;;;;;;;2.90;1.20;;;;;;;21.90;43.35;100591.53;5056928;28;20403;-89
2022/07/16 10:17:34;;;;;;;2.75;1.05;;;;;;;22.35;42.46;100582.13;5058398;28;20066;-88
2022/07/16 10:20:14;;;;;;;2.70;1.00;;;;;;;22.43;42.16;100590.81;5054326;28;20047;-89
2022/07/16 10:22:42;;;;;;;3.20;1.02;;;;;;;23.21;39.78;100596.63;5055838;28;20029;-86
2022/07/16 10:25:15;;;;;;;1.88;0.90;;;;;;;22.62;40.49;100593.25;5056663;28;20487;-87
2022/07/16 10:27:42;;;;;;;8.23;0.93;;;;;;;22.25;41.04;100597.13;5057026;28;20048;-87
2022/07/16 10:30:23;;;;;;;2.42;0.52;;;;;;;21.98;41.07;100604.63;5036727;28;20504;-87
2022/07/16 10:33:06;;;;;;;4.47;1.30;;;;;;;22.46;41.22;100601.25;5037368;28;20660;-75
2022/07/16 10:35:37;;;;;;;4.90;0.97;;;;;;;22.10;41.14;100608.72;5037734;28;20115;-75
2022/07/16 10:38:20;;;;;;;6.15;1.05;;;;;;;22.32;41.17;100601.41;5038164;28;20021;-80
2022/07/16 10:40:46;;;;;;;4.53;0.80;;;;;;;21.64;42.33;100595.81;5054731;28;20029;-79
2022/07/16 10:43:20;;;;;;;3.40;1.10;;;;;;;22.16;41.43;100605.47;5053547;28;20469;-76
2022/07/16 10:45:54;;;;;;;5.72;1.00;;;;;;;22.33;41.05;100616.94;5052747;28;20040;-77
2022/07/16 10:48:22;;;;;;;3.50;1.30;;;;;;;22.81;39.45;100609.63;5052815;28;20146;-90
2022/07/16 10:51:14;;;;;;;3.38;1.42;;;;;;;23.05;39.45;100615.78;5056988;28;20044;-91
2022/07/16 10:54:14;;;;;;;4.28;1.17;;;;;;;22.70;39.74;100619.44;5058860;28;20028;-85
2022/07/16 10:56:45;;;;;;;11.70;1.50;;;;;;;22.36;39.75;100616.28;5056144;28;20061;-85
2022/07/16 10:59:13;;;;;;;3.20;1.30;;;;;;;22.34;40.21;100619.38;5052866;28;20032;-77
2022/07/16 11:01:40;;;;;;;4.03;1.02;;;;;;;22.11;40.13;100618.69;5051966;28;20392;-77
2022/07/16 11:04:06;;;;;;;2.13;1.05;;;;;;;21.74;41.02;100633.56;5051909;28;20045;-77
2022/07/16 11:06:33;;;;;;;8.55;1.05;;;;;;;22.30;40.01;100628.69;5052099;28;20033;-77
2022/07/16 11:09:00;;;;;;;2.40;0.65;;;;;;;22.84;38.83;100627.63;5055280;28;20033;-87
2022/07/16 11:11:45;;;;;;;6.47;0.82;;;;;;;22.51;38.94;100632.47;5056166;28;20064;-87
2022/07/16 11:14:11;;;;;;;5.15;1.77;;;;;;;22.19;39.26;100640.09;5055327;28;20040;-87
2022/07/16 11:16:48;;;;;;;2.13;0.73;;;;;;;22.66;39.00;100632.34;5055807;28;20041;-86
2022/07/16 11:19:15;;;;;;;5.22;1.45;;;;;;;23.25;38.45;100636.53;5054213;28;20102;-85
2022/07/16 11:21:55;;;;;;;2.83;1.15;;;;;;;23.29;38.25;100645.06;5055139;28;20028;-84
2022/07/16 11:24:22;;;;;;;6.90;0.90;;;;;;;23.51;37.95;100646.00;5051912;28;20451;-76
2022/07/16 11:26:48;;;;;;;3.42;0.90;;;;;;;22.90;38.08;100637.41;5051692;28;20032;-77
2022/07/16 11:29:13;;;;;;;2.55;0.50;;;;;;;22.91;38.50;100636.25;5054914;28;20124;-86